createdAt,value
2023-06-07T00:00:08.093Z,100262.67
2023-06-07T00:03:01.591Z,100267.27
2023-06-07T00:05:32.592Z,100263.46
2023-06-07T00:07:59.827Z,100265.56
2023-06-07T00:10:26.962Z,100261.35
2023-06-07T00:12:54.720Z,100258.83
2023-06-07T00:15:21.782Z,100254.23
2023-06-07T00:17:49.063Z,100262.72
2023-06-07T00:20:16.679Z,100256.98
2023-06-07T00:22:45.022Z,100257.08
2023-06-07T00:25:12.894Z,100254.41
2023-06-07T00:27:40.381Z,100254.50
2023-06-07T00:30:09.364Z,100258.45
2023-06-07T00:32:36.472Z,100259.14
2023-06-07T00:35:03.648Z,100259.34
2023-06-07T00:37:31.493Z,100253.55
2023-06-07T00:39:59.612Z,100254.05
2023-06-07T00:42:27.048Z,100252.05
2023-06-07T00:44:54.157Z,100249.45
2023-06-07T00:47:21.768Z,100247.23
2023-06-07T00:49:49.878Z,100245.59
2023-06-07T00:52:17.112Z,100240.93
2023-06-07T00:54:45.185Z,100244.73
2023-06-07T00:57:15.049Z,100242.15
2023-06-07T00:59:42.765Z,100242.02
2023-06-07T01:02:09.984Z,100241.50
2023-06-07T01:05:18.901Z,100238.26
2023-06-07T01:07:49.686Z,100238.96
2023-06-07T01:10:17.436Z,100238.09
2023-06-07T01:12:46.167Z,100236.72
2023-06-07T01:15:14.797Z,100239.46
2023-06-07T01:17:45.720Z,100240.09
2023-06-07T01:20:15.769Z,100236.56
2023-06-07T01:22:46.853Z,100236.15
2023-06-07T01:25:14.278Z,100234.60
2023-06-07T01:27:45.015Z,100231.09
2023-06-07T01:30:15.742Z,100230.40
2023-06-07T01:32:45.066Z,100233.11
2023-06-07T01:35:13.862Z,100230.27
2023-06-07T01:37:41.961Z,100232.11
2023-06-07T01:40:11.315Z,100234.86
2023-06-07T01:42:39.184Z,100231.63
2023-06-07T01:45:08.434Z,100237.39
2023-06-07T01:47:36.182Z,100229.82
2023-06-07T01:50:03.562Z,100230.48
2023-06-07T01:52:31.046Z,100231.84
2023-06-07T01:54:58.640Z,100230.67
2023-06-07T01:57:35.951Z,100233.27
2023-06-07T02:00:13.305Z,100235.16
2023-06-07T02:02:48.713Z,100235.67
2023-06-07T02:05:21.524Z,100235.89
2023-06-07T02:07:52.314Z,100231.40
2023-06-07T02:10:22.561Z,100233.89
2023-06-07T02:12:52.009Z,100231.47
2023-06-07T02:15:19.445Z,100229.60
2023-06-07T02:17:59.276Z,100228.55
2023-06-07T02:20:27.692Z,100224.60
2023-06-07T02:22:55.381Z,100223.88
2023-06-07T02:25:22.706Z,100225.20
2023-06-07T02:27:50.877Z,100222.33
2023-06-07T02:30:18.224Z,100224.12
2023-06-07T02:32:46.478Z,100227.88
2023-06-07T02:35:14.468Z,100225.29
2023-06-07T02:37:41.776Z,100223.20
2023-06-07T02:40:11.728Z,100224.76
2023-06-07T02:42:39.191Z,100222.66
2023-06-07T02:45:06.710Z,100223.48
2023-06-07T02:47:34.150Z,100225.19
2023-06-07T02:50:02.413Z,100225.73
2023-06-07T02:52:31.172Z,100224.63
2023-06-07T02:54:58.308Z,100225.45
2023-06-07T02:57:25.523Z,100225.68
2023-06-07T02:59:54.077Z,100228.18
2023-06-07T03:02:24.405Z,100228.09
2023-06-07T03:04:52.573Z,100228.67
2023-06-07T03:07:21.434Z,100231.27
2023-06-07T03:09:49.757Z,100235.14
2023-06-07T03:12:18.500Z,100234.70
2023-06-07T03:14:49.333Z,100234.81
2023-06-07T03:17:18.427Z,100234.30
2023-06-07T03:19:49.947Z,100231.23
2023-06-07T03:22:18.200Z,100233.79
2023-06-07T03:24:46.170Z,100235.05
2023-06-07T03:27:14.309Z,100239.20
2023-06-07T03:29:41.674Z,100240.42
2023-06-07T03:32:10.559Z,100237.99
2023-06-07T03:34:39.103Z,100234.23
2023-06-07T03:37:07.114Z,100233.63
2023-06-07T03:39:34.870Z,100237.68
2023-06-07T03:42:02.180Z,100240.15
2023-06-07T03:44:29.529Z,100239.46
2023-06-07T03:46:57.107Z,100244.59
2023-06-07T03:49:24.975Z,100245.16
2023-06-07T03:51:52.419Z,100245.95
2023-06-07T03:54:19.624Z,100246.98
2023-06-07T03:56:48.353Z,100245.02
2023-06-07T03:59:16.574Z,100242.29
2023-06-07T04:01:43.810Z,100243.77
2023-06-07T04:04:12.197Z,100242.85
2023-06-07T04:06:40.921Z,100244.48
2023-06-07T04:09:09.445Z,100244.08
2023-06-07T04:11:36.778Z,100243.02
2023-06-07T04:14:04.304Z,100239.50
2023-06-07T04:16:32.415Z,100235.16
2023-06-07T04:19:02.400Z,100234.17
2023-06-07T04:21:32.138Z,100233.88
2023-06-07T04:23:59.441Z,100233.11
2023-06-07T04:26:27.257Z,100233.94
2023-06-07T04:28:57.711Z,100236.18
2023-06-07T04:31:30.954Z,100238.23
2023-06-07T04:34:02.688Z,100237.13
2023-06-07T04:36:32.090Z,100234.36
2023-06-07T04:39:02.204Z,100238.95
2023-06-07T04:41:34.345Z,100235.30
2023-06-07T04:44:04.698Z,100234.05
2023-06-07T04:46:36.130Z,100231.02
2023-06-07T04:49:03.372Z,100234.70
2023-06-07T04:51:31.355Z,100232.88
2023-06-07T04:53:59.787Z,100236.45
2023-06-07T04:56:28.809Z,100236.57
2023-06-07T04:58:58.008Z,100242.71
2023-06-07T05:01:26.730Z,100235.14
2023-06-07T05:04:02.331Z,100239.19
2023-06-07T05:06:38.631Z,100236.42
2023-06-07T05:09:08.034Z,100230.07
2023-06-07T05:11:35.761Z,100233.41
2023-06-07T05:14:03.409Z,100236.31
2023-06-07T05:16:33.782Z,100236.84
2023-06-07T05:19:02.119Z,100238.48
2023-06-07T05:21:30.010Z,100234.91
2023-06-07T05:23:57.573Z,100235.65
2023-06-07T05:26:26.580Z,100232.43
2023-06-07T05:28:53.912Z,100235.51
2023-06-07T05:31:21.980Z,100234.26
2023-06-07T05:33:49.486Z,100237.75
2023-06-07T05:36:18.066Z,100237.14
2023-06-07T05:38:46.585Z,100236.87
2023-06-07T05:41:13.867Z,100237.49
2023-06-07T05:43:43.511Z,100232.11
2023-06-07T05:46:11.072Z,100237.05
2023-06-07T05:48:39.125Z,100238.90
2023-06-07T05:51:08.917Z,100239.71
2023-06-07T05:53:36.544Z,100236.64
2023-06-07T05:56:04.019Z,100232.13
2023-06-07T05:58:32.613Z,100227.72
2023-06-07T06:01:00.312Z,100226.67
2023-06-07T06:03:27.483Z,100224.52
2023-06-07T06:05:56.454Z,100217.20
2023-06-07T06:08:23.789Z,100222.04
2023-06-07T06:10:51.260Z,100219.73
2023-06-07T06:13:18.394Z,100216.33
2023-06-07T06:15:45.765Z,100220.95
2023-06-07T06:18:12.979Z,100220.91
2023-06-07T06:20:40.187Z,100217.38
2023-06-07T06:23:08.519Z,100218.63
2023-06-07T06:25:38.144Z,100216.23
2023-06-07T06:28:05.639Z,100213.89
2023-06-07T06:30:32.945Z,100216.69
2023-06-07T06:33:01.261Z,100213.66
2023-06-07T06:35:29.780Z,100216.09
2023-06-07T06:37:57.435Z,100220.92
2023-06-07T06:40:24.953Z,100221.30
2023-06-07T06:42:52.376Z,100217.07
2023-06-07T06:45:27.545Z,100218.73
2023-06-07T06:47:54.888Z,100212.11
2023-06-07T06:50:32.738Z,100210.66
2023-06-07T06:53:01.591Z,100212.45
2023-06-07T06:55:28.890Z,100210.47
2023-06-07T06:57:56.316Z,100213.59
2023-06-07T07:00:26.170Z,100214.95
2023-06-07T07:02:53.773Z,100214.35
2023-06-07T07:05:21.472Z,100216.30
2023-06-07T07:07:48.908Z,100216.48
2023-06-07T07:10:16.606Z,100215.45
2023-06-07T07:12:44.221Z,100212.07
2023-06-07T07:15:12.988Z,100214.58
2023-06-07T07:17:46.389Z,100214.02
2023-06-07T07:20:15.101Z,100218.51
2023-06-07T07:22:42.679Z,100219.34
2023-06-07T07:25:11.413Z,100220.30
2023-06-07T07:27:38.753Z,100221.42
2023-06-07T07:30:06.733Z,100214.83
2023-06-07T07:32:34.857Z,100214.42
2023-06-07T07:35:05.738Z,100212.73
2023-06-07T07:37:33.312Z,100212.23
2023-06-07T07:40:00.440Z,100215.04
2023-06-07T07:42:27.939Z,100216.33
2023-06-07T07:44:55.053Z,100212.66
2023-06-07T07:47:22.576Z,100213.70
2023-06-07T07:49:53.226Z,100209.62
2023-06-07T07:52:22.622Z,100210.05
2023-06-07T07:54:50.113Z,100212.42
2023-06-07T07:57:17.572Z,100210.19
2023-06-07T07:59:45.217Z,100214.67
2023-06-07T08:02:15.506Z,100216.49
2023-06-07T08:04:43.327Z,100215.30
2023-06-07T08:07:10.719Z,100213.59
2023-06-07T08:09:38.125Z,100214.16
2023-06-07T08:12:06.981Z,100215.25
2023-06-07T08:14:34.401Z,100212.90
2023-06-07T08:17:01.583Z,100213.02
2023-06-07T08:19:28.888Z,100211.57
2023-06-07T08:21:55.972Z,100210.80
2023-06-07T08:24:23.102Z,100214.05
2023-06-07T08:26:50.982Z,100215.86
2023-06-07T08:29:20.009Z,100211.98
2023-06-07T08:31:49.234Z,100211.27
2023-06-07T08:34:16.482Z,100209.20
2023-06-07T08:36:44.008Z,100208.89
2023-06-07T08:39:11.147Z,100207.31
2023-06-07T08:41:38.331Z,100207.58
2023-06-07T08:44:05.806Z,100206.30
2023-06-07T08:46:34.026Z,100203.94
2023-06-07T08:49:03.486Z,100199.33
2023-06-07T08:51:34.657Z,100200.02
2023-06-07T08:54:05.964Z,100200.17
2023-06-07T08:56:34.051Z,100198.97
2023-06-07T08:59:02.298Z,100199.60
2023-06-07T09:01:32.198Z,100199.44
2023-06-07T09:04:00.666Z,100198.00
2023-06-07T09:06:28.248Z,100196.41
2023-06-07T09:08:55.497Z,100196.64
2023-06-07T09:11:23.517Z,100203.56
2023-06-07T09:13:51.097Z,100201.14
2023-06-07T09:16:18.482Z,100201.88
2023-06-07T09:18:47.264Z,100195.45
2023-06-07T09:21:24.487Z,100195.65
2023-06-07T09:23:52.194Z,100198.44
2023-06-07T09:26:20.138Z,100205.27
2023-06-07T09:28:48.204Z,100202.91
2023-06-07T09:31:30.070Z,100204.79
2023-06-07T09:33:57.476Z,100200.77
2023-06-07T09:36:24.677Z,100198.67
2023-06-07T09:38:51.854Z,100204.21
2023-06-07T09:41:19.334Z,100202.85
2023-06-07T09:43:49.102Z,100205.39
2023-06-07T09:46:16.710Z,100207.35
2023-06-07T09:48:55.223Z,100202.43
2023-06-07T09:51:23.278Z,100203.88
2023-06-07T09:53:55.871Z,100196.46
2023-06-07T09:56:24.095Z,100186.77
2023-06-07T09:58:52.687Z,100189.80
2023-06-07T10:01:35.115Z,100189.83
2023-06-07T10:04:03.759Z,100188.73
2023-06-07T10:06:36.117Z,100190.35
2023-06-07T10:09:07.269Z,100190.24
2023-06-07T10:11:37.584Z,100189.28
2023-06-07T10:14:08.793Z,100185.42
2023-06-07T10:16:39.002Z,100180.89
2023-06-07T10:19:12.754Z,100181.90
2023-06-07T10:21:42.128Z,100181.55
2023-06-07T10:24:15.199Z,100178.94
2023-06-07T10:26:52.401Z,100179.21
2023-06-07T10:29:27.379Z,100178.27
2023-06-07T10:32:00.593Z,100180.25
2023-06-07T10:34:30.798Z,100178.42
2023-06-07T10:37:02.668Z,100177.42
2023-06-07T10:39:29.964Z,100172.20
2023-06-07T10:41:58.998Z,100172.70
2023-06-07T10:44:27.821Z,100174.19
2023-06-07T10:47:27.952Z,100182.48
2023-06-07T10:49:56.542Z,100182.35
2023-06-07T10:52:24.088Z,100172.52
2023-06-07T10:54:51.355Z,100173.15
2023-06-07T10:57:37.704Z,100173.95
2023-06-07T11:00:30.315Z,100170.02
2023-06-07T11:03:28.505Z,100171.76
2023-06-07T11:06:10.207Z,100171.12
2023-06-07T11:08:42.004Z,100172.10
2023-06-07T11:11:54.556Z,100167.27
2023-06-07T11:14:21.839Z,100171.89
2023-06-07T11:16:49.074Z,100171.10
2023-06-07T11:19:19.961Z,100166.38
2023-06-07T11:22:05.914Z,100162.06
2023-06-07T11:24:33.732Z,100159.48
2023-06-07T11:27:01.327Z,100163.85
2023-06-07T11:29:29.416Z,100167.89
2023-06-07T11:32:02.149Z,100162.55
2023-06-07T11:34:31.604Z,100159.54
2023-06-07T11:37:18.114Z,100161.33
2023-06-07T11:39:45.292Z,100157.37
2023-06-07T11:42:12.508Z,100154.81
2023-06-07T11:44:40.422Z,100156.93
2023-06-07T11:47:11.425Z,100156.80
2023-06-07T11:49:43.230Z,100153.59
2023-06-07T11:52:11.541Z,100145.95
2023-06-07T11:54:43.450Z,100142.98
2023-06-07T11:57:12.226Z,100149.32
2023-06-07T11:59:42.213Z,100147.57
2023-06-07T12:02:14.273Z,100146.31
2023-06-07T12:04:43.712Z,100143.67
2023-06-07T12:07:31.951Z,100141.02
2023-06-07T12:09:59.143Z,100135.89
2023-06-07T12:12:26.769Z,100134.85
2023-06-07T12:15:03.081Z,100133.09
2023-06-07T12:17:36.023Z,100132.72
2023-06-07T12:20:12.729Z,100132.25
2023-06-07T12:22:39.951Z,100126.32
2023-06-07T12:25:16.704Z,100132.59
2023-06-07T12:27:48.379Z,100131.17
2023-06-07T12:30:16.135Z,100125.88
2023-06-07T12:32:44.865Z,100128.09
2023-06-07T12:35:15.216Z,100124.96
2023-06-07T12:37:43.987Z,100130.91
2023-06-07T12:40:12.022Z,100128.75
2023-06-07T12:42:40.321Z,100126.94
2023-06-07T12:45:08.953Z,100120.40
2023-06-07T12:47:36.537Z,100119.64
2023-06-07T12:50:04.953Z,100116.42
2023-06-07T12:52:32.086Z,100109.52
2023-06-07T12:54:59.877Z,100107.97
2023-06-07T12:57:26.943Z,100106.06
2023-06-07T12:59:54.083Z,100109.02
2023-06-07T13:02:22.288Z,100113.58
2023-06-07T13:04:50.084Z,100110.19
2023-06-07T13:07:17.261Z,100108.36
2023-06-07T13:09:44.392Z,100101.34
2023-06-07T13:12:13.820Z,100096.52
2023-06-07T13:14:41.004Z,100093.04
2023-06-07T13:17:11.066Z,100092.02
2023-06-07T13:19:39.609Z,100094.54
2023-06-07T13:22:07.144Z,100095.50
2023-06-07T13:24:34.603Z,100096.52
2023-06-07T13:27:02.178Z,100090.72
2023-06-07T13:29:29.311Z,100088.48
2023-06-07T13:31:57.666Z,100090.59
2023-06-07T13:34:24.785Z,100088.21
2023-06-07T13:36:51.798Z,100084.69
2023-06-07T13:39:19.889Z,100083.26
2023-06-07T13:41:46.936Z,100085.68
2023-06-07T13:44:18.650Z,100079.94
2023-06-07T13:46:46.803Z,100079.47
2023-06-07T13:49:15.304Z,100072.25
2023-06-07T13:51:42.947Z,100074.42
2023-06-07T13:54:10.539Z,100076.02
2023-06-07T13:56:37.737Z,100073.40
2023-06-07T13:59:04.888Z,100069.51
2023-06-07T14:01:33.240Z,100069.83
2023-06-07T14:04:00.697Z,100072.20
2023-06-07T14:06:28.444Z,100068.52
2023-06-07T14:08:55.843Z,100071.98
2023-06-07T14:11:24.861Z,100066.75
2023-06-07T14:13:52.107Z,100058.61
2023-06-07T14:16:21.064Z,100060.27
2023-06-07T14:18:48.222Z,100057.58
2023-06-07T14:21:15.446Z,100053.63
2023-06-07T14:23:43.145Z,100055.36
2023-06-07T14:26:10.380Z,100050.86
2023-06-07T14:28:37.530Z,100047.52
2023-06-07T14:31:05.009Z,100056.28
2023-06-07T14:33:32.152Z,100049.49
2023-06-07T14:35:59.290Z,100060.48
2023-06-07T14:38:26.746Z,100056.22
2023-06-07T14:40:53.942Z,100057.66
2023-06-07T14:43:20.990Z,100058.36
2023-06-07T14:45:48.548Z,100059.10
2023-06-07T14:48:15.883Z,100057.89
2023-06-07T14:50:42.994Z,100064.33
2023-06-07T14:53:10.864Z,100062.89
2023-06-07T14:55:38.086Z,100067.79
2023-06-07T14:58:07.091Z,100062.77
2023-06-07T15:00:34.957Z,100058.88
2023-06-07T15:03:02.233Z,100061.95
2023-06-07T15:05:30.576Z,100058.57
2023-06-07T15:07:58.164Z,100054.55
2023-06-07T15:10:25.195Z,100061.64
2023-06-07T15:12:54.206Z,100065.50
2023-06-07T15:15:22.640Z,100065.19
2023-06-07T15:17:52.068Z,100068.12
2023-06-07T15:20:20.209Z,100070.64
2023-06-07T15:22:47.331Z,100067.48
2023-06-07T15:25:14.422Z,100064.48
2023-06-07T15:27:41.687Z,100059.05
2023-06-07T15:30:11.004Z,100065.76
2023-06-07T15:32:38.319Z,100067.25
2023-06-07T15:35:05.851Z,100069.32
2023-06-07T15:37:34.036Z,100067.76
2023-06-07T15:40:01.139Z,100073.91
2023-06-07T15:42:28.539Z,100072.16
2023-06-07T15:44:55.793Z,100075.20
2023-06-07T15:47:22.845Z,100066.05
2023-06-07T15:49:49.958Z,100067.27
2023-06-07T15:52:17.027Z,100064.55
2023-06-07T15:54:44.123Z,100072.91
2023-06-07T15:57:11.756Z,100070.48
2023-06-07T15:59:39.033Z,100070.23
2023-06-07T16:02:06.649Z,100075.88
2023-06-07T16:04:34.661Z,100089.30
2023-06-07T16:07:02.151Z,100095.71
2023-06-07T16:09:29.418Z,100093.19
2023-06-07T16:11:56.512Z,100096.05
2023-06-07T16:14:23.676Z,100095.10
2023-06-07T16:16:50.928Z,100102.71
2023-06-07T16:19:18.169Z,100101.00
2023-06-07T16:21:45.619Z,100100.37
2023-06-07T16:24:12.998Z,100097.53
2023-06-07T16:26:40.450Z,100101.45
2023-06-07T16:29:07.725Z,100101.55
2023-06-07T16:31:34.968Z,100102.09
2023-06-07T16:34:02.548Z,100103.06
2023-06-07T16:36:31.579Z,100100.16
2023-06-07T16:38:58.681Z,100105.13
2023-06-07T16:41:27.237Z,100105.46
2023-06-07T16:43:54.726Z,100104.23
2023-06-07T16:46:22.201Z,100111.60
2023-06-07T16:48:49.599Z,100109.36
2023-06-07T16:51:16.861Z,100102.11
2023-06-07T16:53:43.953Z,100099.35
2023-06-07T16:56:11.229Z,100098.80
2023-06-07T16:58:38.588Z,100100.96
2023-06-07T17:01:05.752Z,100101.48
2023-06-07T17:03:33.163Z,100101.43
2023-06-07T17:06:00.791Z,100100.33
2023-06-07T17:08:28.149Z,100101.12
2023-06-07T17:10:55.595Z,100101.92
2023-06-07T17:13:23.340Z,100101.96
2023-06-07T17:15:50.959Z,100106.36
2023-06-07T17:18:18.302Z,100106.69
2023-06-07T17:20:47.592Z,100105.80
2023-06-07T17:23:17.469Z,100113.22
2023-06-07T17:25:44.657Z,100116.86
2023-06-07T17:28:11.898Z,100118.64
2023-06-07T17:30:42.222Z,100118.85
2023-06-07T17:33:09.673Z,100121.67
2023-06-07T17:35:36.829Z,100125.48
2023-06-07T17:38:03.921Z,100132.93
2023-06-07T17:40:31.665Z,100129.14
2023-06-07T17:43:00.128Z,100123.56
2023-06-07T17:45:30.561Z,100128.30
2023-06-07T17:47:58.130Z,100134.78
2023-06-07T17:50:44.829Z,100133.33
2023-06-07T17:53:15.221Z,100137.73
2023-06-07T17:55:43.767Z,100132.11
2023-06-07T17:58:10.932Z,100136.64
2023-06-07T18:00:38.447Z,100138.29
2023-06-07T18:03:05.661Z,100138.73
2023-06-07T18:05:32.827Z,100143.55
2023-06-07T18:08:00.301Z,100138.92
2023-06-07T18:10:27.502Z,100147.34
2023-06-07T18:12:55.064Z,100143.96
2023-06-07T18:15:25.035Z,100143.08
2023-06-07T18:17:54.105Z,100148.17
2023-06-07T18:20:22.247Z,100157.73
2023-06-07T18:22:50.558Z,100161.83
2023-06-07T18:25:20.031Z,100164.95
2023-06-07T18:27:49.173Z,100158.46
2023-06-07T18:30:17.054Z,100163.02
2023-06-07T18:32:45.701Z,100162.93
2023-06-07T18:35:14.671Z,100168.19
2023-06-07T18:37:42.423Z,100165.14
2023-06-07T18:40:11.650Z,100160.75
2023-06-07T18:42:39.227Z,100166.02
2023-06-07T18:45:08.022Z,100164.38
2023-06-07T18:47:35.417Z,100165.52
2023-06-07T18:50:04.589Z,100166.86
2023-06-07T18:52:32.269Z,100164.64
2023-06-07T18:54:59.390Z,100167.52
2023-06-07T18:57:26.607Z,100168.77
2023-06-07T18:59:53.665Z,100172.59
2023-06-07T19:02:20.901Z,100170.76
2023-06-07T19:04:48.396Z,100178.52
2023-06-07T19:07:16.240Z,100188.02
2023-06-07T19:09:45.147Z,100186.34
2023-06-07T19:12:14.179Z,100180.55
2023-06-07T19:14:41.516Z,100184.09
2023-06-07T19:17:11.860Z,100185.79
2023-06-07T19:19:39.290Z,100187.34
2023-06-07T19:22:08.509Z,100189.64
2023-06-07T19:24:44.008Z,100197.25
2023-06-07T19:27:11.849Z,100196.08
2023-06-07T19:29:42.019Z,100200.66
2023-06-07T19:32:12.511Z,100204.50
2023-06-07T19:34:39.657Z,100202.48
2023-06-07T19:37:08.167Z,100199.48
2023-06-07T19:39:35.646Z,100199.34
2023-06-07T19:42:07.806Z,100200.86
2023-06-07T19:44:35.219Z,100208.43
2023-06-07T19:47:05.111Z,100209.92
2023-06-07T19:49:32.286Z,100213.25
2023-06-07T19:52:00.216Z,100214.48
2023-06-07T19:54:28.046Z,100217.30
2023-06-07T19:56:55.170Z,100216.15
2023-06-07T19:59:22.679Z,100218.23
2023-06-07T20:01:51.066Z,100217.80
2023-06-07T20:04:18.300Z,100218.11
2023-06-07T20:06:45.666Z,100224.86
2023-06-07T20:09:13.777Z,100226.89
2023-06-07T20:11:41.082Z,100216.62
2023-06-07T20:14:09.629Z,100208.33
2023-06-07T20:16:36.950Z,100207.48
2023-06-07T20:19:04.870Z,100212.77
2023-06-07T20:21:32.160Z,100209.95
2023-06-07T20:23:59.686Z,100212.29
2023-06-07T20:26:27.013Z,100208.89
2023-06-07T20:28:54.146Z,100209.46
2023-06-07T20:31:21.631Z,100216.91
2023-06-07T20:33:48.729Z,100216.63
2023-06-07T20:36:16.985Z,100220.48
2023-06-07T20:38:46.117Z,100220.21
2023-06-07T20:41:13.202Z,100208.04
2023-06-07T20:43:40.797Z,100207.59
2023-06-07T20:46:08.262Z,100211.27
2023-06-07T20:48:35.926Z,100216.16
2023-06-07T20:51:05.052Z,100214.98
2023-06-07T20:53:32.860Z,100212.63
2023-06-07T20:55:59.879Z,100216.25
2023-06-07T20:58:27.295Z,100217.02
2023-06-07T21:00:54.648Z,100214.04
2023-06-07T21:03:22.604Z,100216.08
2023-06-07T21:05:50.622Z,100216.87
2023-06-07T21:08:18.083Z,100220.64
2023-06-07T21:10:46.474Z,100224.63
2023-06-07T21:13:13.691Z,100229.31
2023-06-07T21:15:41.409Z,100236.66
2023-06-07T21:18:16.385Z,100233.00
2023-06-07T21:20:44.381Z,100233.56
2023-06-07T21:23:13.178Z,100234.41
2023-06-07T21:25:40.613Z,100236.45
2023-06-07T21:28:08.266Z,100238.31
2023-06-07T21:30:35.392Z,100238.97
2023-06-07T21:33:04.955Z,100245.01
2023-06-07T21:35:32.559Z,100246.75
2023-06-07T21:38:00.225Z,100244.89
2023-06-07T21:40:27.498Z,100249.76
2023-06-07T21:42:54.723Z,100250.00
2023-06-07T21:45:21.963Z,100253.27
2023-06-07T21:47:49.770Z,100253.17
2023-06-07T21:50:17.728Z,100256.02
2023-06-07T21:52:44.920Z,100252.75
2023-06-07T21:55:13.030Z,100256.63
2023-06-07T21:57:40.526Z,100252.54
2023-06-07T22:00:10.292Z,100250.88
2023-06-07T22:02:40.819Z,100250.10
2023-06-07T22:05:09.378Z,100252.11
2023-06-07T22:07:36.621Z,100249.20
2023-06-07T22:10:04.247Z,100254.63
2023-06-07T22:12:32.352Z,100253.39
2023-06-07T22:15:01.938Z,100250.98
2023-06-07T22:17:31.313Z,100250.13
2023-06-07T22:19:59.231Z,100246.27
2023-06-07T22:22:27.129Z,100252.91
2023-06-07T22:24:54.333Z,100252.38
2023-06-07T22:27:21.707Z,100245.63
2023-06-07T22:29:49.482Z,100247.70
2023-06-07T22:32:16.708Z,100250.69
2023-06-07T22:34:46.228Z,100247.21
2023-06-07T22:37:14.316Z,100244.95
2023-06-07T22:39:42.498Z,100243.17
2023-06-07T22:42:10.166Z,100247.08
2023-06-07T22:44:38.459Z,100247.22
2023-06-07T22:47:07.473Z,100247.45
2023-06-07T22:49:37.545Z,100249.80
2023-06-07T22:52:06.073Z,100250.08
2023-06-07T22:54:33.211Z,100251.20
2023-06-07T22:57:00.486Z,100249.11
2023-06-07T22:59:28.135Z,100245.43
2023-06-07T23:01:56.802Z,100248.76
2023-06-07T23:04:24.684Z,100248.48
2023-06-07T23:06:51.805Z,100240.73
2023-06-07T23:09:18.982Z,100240.98
2023-06-07T23:11:50.584Z,100238.44
2023-06-07T23:14:18.776Z,100237.21
2023-06-07T23:16:46.391Z,100236.48
2023-06-07T23:19:14.216Z,100238.88
2023-06-07T23:21:48.354Z,100237.38
2023-06-07T23:24:23.046Z,100239.06
2023-06-07T23:26:50.649Z,100238.55
2023-06-07T23:29:18.014Z,100237.42
2023-06-07T23:31:47.373Z,100238.27
2023-06-07T23:34:14.455Z,100238.59
2023-06-07T23:36:41.652Z,100236.30
2023-06-07T23:39:09.103Z,100237.02
2023-06-07T23:41:36.676Z,100240.58
2023-06-07T23:44:04.131Z,100246.34
2023-06-07T23:46:31.970Z,100249.89
2023-06-07T23:49:00.064Z,100253.04
2023-06-07T23:51:27.215Z,100248.63
2023-06-07T23:53:54.440Z,100249.68
2023-06-07T23:56:21.706Z,100249.48
2023-06-07T23:58:49.617Z,100250.19
